sensor_id;sensor_type;location;lat;lon;timestamp;P1;durP1;ratioP1;P2;durP2;ratioP2
9729;SDS011;4904;49.152;11.004;2022-09-21T00:01:53;3.53;;;2.60;;
9729;SDS011;4904;49.152;11.004;2022-09-21T00:04:19;2.87;;;2.37;;
9729;SDS011;4904;49.152;11.004;2022-09-21T00:06:48;5.83;;;2.67;;
9729;SDS011;4904;49.152;11.004;2022-09-21T00:09:15;3.47;;;2.40;;
9729;SDS011;4904;49.152;11.004;2022-09-21T00:11:42;6.67;;;2.67;;
9729;SDS011;4904;49.152;11.004;2022-09-21T00:14:10;3.10;;;2.40;;
9729;SDS011;4904;49.152;11.004;2022-09-21T00:16:39;2.87;;;2.33;;
9729;SDS011;4904;49.152;11.004;2022-09-21T00:19:07;2.93;;;2.30;;
9729;SDS011;4904;49.152;11.004;2022-09-21T00:21:35;4.63;;;2.37;;
9729;SDS011;4904;49.152;11.004;2022-09-21T00:24:04;4.37;;;2.33;;
9729;SDS011;4904;49.152;11.004;2022-09-21T00:26:32;2.73;;;2.53;;
9729;SDS011;4904;49.152;11.004;2022-09-21T00:29:00;4.87;;;2.47;;
9729;SDS011;4904;49.152;11.004;2022-09-21T00:31:28;2.97;;;2.50;;
9729;SDS011;4904;49.152;11.004;2022-09-21T00:33:56;2.80;;;2.40;;
9729;SDS011;4904;49.152;11.004;2022-09-21T00:36:24;3.57;;;2.23;;
9729;SDS011;4904;49.152;11.004;2022-09-21T00:38:53;2.63;;;2.30;;
9729;SDS011;4904;49.152;11.004;2022-09-21T00:41:22;3.03;;;2.63;;
9729;SDS011;4904;49.152;11.004;2022-09-21T00:46:54;2.00;;;1.80;;
9729;SDS011;4904;49.152;11.004;2022-09-21T00:49:23;2.60;;;2.00;;
9729;SDS011;4904;49.152;11.004;2022-09-21T00:51:52;2.30;;;2.10;;
9729;SDS011;4904;49.152;11.004;2022-09-21T00:54:21;2.70;;;2.20;;
9729;SDS011;4904;49.152;11.004;2022-09-21T00:56:52;2.50;;;2.30;;
9729;SDS011;4904;49.152;11.004;2022-09-21T00:59:20;2.80;;;2.43;;
9729;SDS011;4904;49.152;11.004;2022-09-21T01:05:10;2.83;;;2.37;;
9729;SDS011;4904;49.152;11.004;2022-09-21T01:07:38;3.90;;;2.73;;
9729;SDS011;4904;49.152;11.004;2022-09-21T01:10:09;3.70;;;2.90;;
9729;SDS011;4904;49.152;11.004;2022-09-21T01:19:28;4.73;;;2.77;;
9729;SDS011;4904;49.152;11.004;2022-09-21T01:22:09;39.37;;;3.67;;
9729;SDS011;4904;49.152;11.004;2022-09-21T01:24:48;57.20;;;4.53;;
9729;SDS011;4904;49.152;11.004;2022-09-21T01:27:38;85.03;;;5.13;;
9729;SDS011;4904;49.152;11.004;2022-09-21T01:30:19;186.73;;;7.13;;
9729;SDS011;4904;49.152;11.004;2022-09-21T01:32:50;37.77;;;3.57;;
9729;SDS011;4904;49.152;11.004;2022-09-21T01:35:23;121.63;;;5.30;;
9729;SDS011;4904;49.152;11.004;2022-09-21T01:37:54;74.50;;;4.47;;
9729;SDS011;4904;49.152;11.004;2022-09-21T01:40:25;52.07;;;3.70;;
9729;SDS011;4904;49.152;11.004;2022-09-21T01:42:56;12.77;;;2.50;;
9729;SDS011;4904;49.152;11.004;2022-09-21T01:45:28;18.03;;;2.77;;
9729;SDS011;4904;49.152;11.004;2022-09-21T01:47:58;3.60;;;2.30;;
9729;SDS011;4904;49.152;11.004;2022-09-21T01:50:26;11.90;;;2.63;;
9729;SDS011;4904;49.152;11.004;2022-09-21T01:52:58;7.23;;;2.60;;
9729;SDS011;4904;49.152;11.004;2022-09-21T01:55:28;27.83;;;2.90;;
9729;SDS011;4904;49.152;11.004;2022-09-21T01:58:02;6.30;;;2.43;;
9729;SDS011;4904;49.152;11.004;2022-09-21T02:00:37;85.90;;;4.33;;
9729;SDS011;4904;49.152;11.004;2022-09-21T02:03:07;13.70;;;2.57;;
9729;SDS011;4904;49.152;11.004;2022-09-21T02:05:39;71.10;;;4.33;;
9729;SDS011;4904;49.152;11.004;2022-09-21T02:08:07;47.50;;;3.13;;
9729;SDS011;4904;49.152;11.004;2022-09-21T02:10:37;31.93;;;3.00;;
9729;SDS011;4904;49.152;11.004;2022-09-21T02:13:08;16.07;;;2.73;;
9729;SDS011;4904;49.152;11.004;2022-09-21T02:15:42;4.00;;;2.40;;
9729;SDS011;4904;49.152;11.004;2022-09-21T02:18:20;15.83;;;2.70;;
9729;SDS011;4904;49.152;11.004;2022-09-21T02:20:58;29.53;;;3.27;;
9729;SDS011;4904;49.152;11.004;2022-09-21T02:23:29;26.90;;;3.00;;
9729;SDS011;4904;49.152;11.004;2022-09-21T02:26:03;15.10;;;3.07;;
9729;SDS011;4904;49.152;11.004;2022-09-21T02:28:36;23.30;;;2.87;;
9729;SDS011;4904;49.152;11.004;2022-09-21T02:31:10;5.73;;;2.60;;
9729;SDS011;4904;49.152;11.004;2022-09-21T02:33:42;2.83;;;2.40;;
9729;SDS011;4904;49.152;11.004;2022-09-21T02:36:19;4.50;;;2.63;;
9729;SDS011;4904;49.152;11.004;2022-09-21T02:38:52;6.00;;;2.73;;
9729;SDS011;4904;49.152;11.004;2022-09-21T02:41:29;40.63;;;3.90;;
9729;SDS011;4904;49.152;11.004;2022-09-21T02:44:03;9.47;;;2.80;;
9729;SDS011;4904;49.152;11.004;2022-09-21T02:46:36;9.50;;;2.30;;
9729;SDS011;4904;49.152;11.004;2022-09-21T02:49:06;4.80;;;2.53;;
9729;SDS011;4904;49.152;11.004;2022-09-21T02:51:38;3.07;;;2.40;;
9729;SDS011;4904;49.152;11.004;2022-09-21T02:54:10;2.87;;;2.57;;
9729;SDS011;4904;49.152;11.004;2022-09-21T02:56:39;2.80;;;2.50;;
9729;SDS011;4904;49.152;11.004;2022-09-21T02:59:07;4.17;;;2.10;;
9729;SDS011;4904;49.152;11.004;2022-09-21T03:01:37;4.00;;;2.47;;
9729;SDS011;4904;49.152;11.004;2022-09-21T03:04:05;31.03;;;3.97;;
9729;SDS011;4904;49.152;11.004;2022-09-21T03:06:32;4.47;;;3.10;;
9729;SDS011;4904;49.152;11.004;2022-09-21T03:08:59;31.33;;;3.40;;
9729;SDS011;4904;49.152;11.004;2022-09-21T03:11:26;58.37;;;4.67;;
9729;SDS011;4904;49.152;11.004;2022-09-21T03:13:53;8.93;;;3.10;;
9729;SDS011;4904;49.152;11.004;2022-09-21T03:16:20;7.57;;;3.10;;
9729;SDS011;4904;49.152;11.004;2022-09-21T03:18:50;14.43;;;3.10;;
9729;SDS011;4904;49.152;11.004;2022-09-21T03:21:17;12.77;;;4.20;;
9729;SDS011;4904;49.152;11.004;2022-09-21T03:23:44;13.90;;;3.83;;
9729;SDS011;4904;49.152;11.004;2022-09-21T03:26:11;7.07;;;2.90;;
9729;SDS011;4904;49.152;11.004;2022-09-21T03:28:38;6.10;;;2.83;;
9729;SDS011;4904;49.152;11.004;2022-09-21T03:31:05;17.80;;;3.33;;
9729;SDS011;4904;49.152;11.004;2022-09-21T03:33:31;7.30;;;2.93;;
9729;SDS011;4904;49.152;11.004;2022-09-21T03:36:00;14.37;;;3.07;;
9729;SDS011;4904;49.152;11.004;2022-09-21T03:38:27;23.77;;;3.57;;
9729;SDS011;4904;49.152;11.004;2022-09-21T03:40:54;7.47;;;2.70;;
9729;SDS011;4904;49.152;11.004;2022-09-21T03:43:21;16.90;;;2.93;;
9729;SDS011;4904;49.152;11.004;2022-09-21T03:45:49;66.40;;;4.87;;
9729;SDS011;4904;49.152;11.004;2022-09-21T03:48:16;10.50;;;2.90;;
9729;SDS011;4904;49.152;11.004;2022-09-21T03:50:43;19.10;;;3.13;;
9729;SDS011;4904;49.152;11.004;2022-09-21T03:53:11;12.50;;;2.70;;
9729;SDS011;4904;49.152;11.004;2022-09-21T03:55:39;5.80;;;2.60;;
9729;SDS011;4904;49.152;11.004;2022-09-21T03:58:06;3.60;;;2.33;;
9729;SDS011;4904;49.152;11.004;2022-09-21T04:00:34;9.13;;;2.47;;
9729;SDS011;4904;49.152;11.004;2022-09-21T04:03:02;5.87;;;2.33;;
9729;SDS011;4904;49.152;11.004;2022-09-21T04:05:29;6.60;;;2.57;;
9729;SDS011;4904;49.152;11.004;2022-09-21T04:07:56;2.83;;;2.53;;
9729;SDS011;4904;49.152;11.004;2022-09-21T04:10:27;2.57;;;2.27;;
9729;SDS011;4904;49.152;11.004;2022-09-21T04:12:56;3.60;;;3.13;;
9729;SDS011;4904;49.152;11.004;2022-09-21T04:15:25;3.23;;;2.70;;
9729;SDS011;4904;49.152;11.004;2022-09-21T04:17:53;60.67;;;7.50;;
9729;SDS011;4904;49.152;11.004;2022-09-21T04:20:20;29.27;;;4.87;;
9729;SDS011;4904;49.152;11.004;2022-09-21T04:22:47;55.47;;;5.00;;
9729;SDS011;4904;49.152;11.004;2022-09-21T04:25:15;36.53;;;4.73;;
9729;SDS011;4904;49.152;11.004;2022-09-21T04:27:44;63.33;;;5.03;;
9729;SDS011;4904;49.152;11.004;2022-09-21T04:30:11;30.27;;;3.47;;
9729;SDS011;4904;49.152;11.004;2022-09-21T04:32:39;25.50;;;3.83;;
9729;SDS011;4904;49.152;11.004;2022-09-21T04:35:07;57.70;;;4.33;;
9729;SDS011;4904;49.152;11.004;2022-09-21T04:37:34;48.40;;;4.20;;
9729;SDS011;4904;49.152;11.004;2022-09-21T04:40:02;24.13;;;3.23;;
9729;SDS011;4904;49.152;11.004;2022-09-21T04:42:29;24.03;;;3.40;;
9729;SDS011;4904;49.152;11.004;2022-09-21T04:44:57;20.30;;;3.33;;
9729;SDS011;4904;49.152;11.004;2022-09-21T04:47:24;10.00;;;2.90;;
9729;SDS011;4904;49.152;11.004;2022-09-21T04:49:51;3.00;;;2.70;;
9729;SDS011;4904;49.152;11.004;2022-09-21T04:52:18;13.30;;;3.07;;
9729;SDS011;4904;49.152;11.004;2022-09-21T04:54:45;14.83;;;3.43;;
9729;SDS011;4904;49.152;11.004;2022-09-21T04:57:12;41.87;;;4.07;;
9729;SDS011;4904;49.152;11.004;2022-09-21T04:59:39;55.50;;;4.40;;
9729;SDS011;4904;49.152;11.004;2022-09-21T05:02:07;43.57;;;4.07;;
9729;SDS011;4904;49.152;11.004;2022-09-21T05:04:34;36.97;;;4.37;;
9729;SDS011;4904;49.152;11.004;2022-09-21T05:07:01;17.90;;;3.70;;
9729;SDS011;4904;49.152;11.004;2022-09-21T05:09:28;37.53;;;3.67;;
9729;SDS011;4904;49.152;11.004;2022-09-21T05:12:12;13.73;;;3.07;;
9729;SDS011;4904;49.152;11.004;2022-09-21T05:14:39;9.77;;;3.00;;
9729;SDS011;4904;49.152;11.004;2022-09-21T05:17:09;10.97;;;3.00;;
9729;SDS011;4904;49.152;11.004;2022-09-21T05:19:36;7.47;;;3.13;;
9729;SDS011;4904;49.152;11.004;2022-09-21T05:22:03;6.13;;;3.40;;
9729;SDS011;4904;49.152;11.004;2022-09-21T05:24:30;14.30;;;3.47;;
9729;SDS011;4904;49.152;11.004;2022-09-21T05:26:56;25.33;;;3.40;;
9729;SDS011;4904;49.152;11.004;2022-09-21T05:29:24;8.23;;;3.17;;
9729;SDS011;4904;49.152;11.004;2022-09-21T05:31:52;5.63;;;2.73;;
9729;SDS011;4904;49.152;11.004;2022-09-21T05:34:26;31.80;;;3.07;;
9729;SDS011;4904;49.152;11.004;2022-09-21T05:37:00;23.23;;;3.07;;
9729;SDS011;4904;49.152;11.004;2022-09-21T05:39:31;32.73;;;3.50;;
9729;SDS011;4904;49.152;11.004;2022-09-21T05:41:59;23.70;;;3.37;;
9729;SDS011;4904;49.152;11.004;2022-09-21T05:44:26;40.20;;;3.93;;
9729;SDS011;4904;49.152;11.004;2022-09-21T05:46:56;33.23;;;3.73;;
9729;SDS011;4904;49.152;11.004;2022-09-21T05:49:31;44.57;;;4.70;;
9729;SDS011;4904;49.152;11.004;2022-09-21T05:52:07;23.90;;;4.23;;
9729;SDS011;4904;49.152;11.004;2022-09-21T05:54:44;34.23;;;4.67;;
9729;SDS011;4904;49.152;11.004;2022-09-21T05:57:22;8.67;;;4.47;;
9729;SDS011;4904;49.152;11.004;2022-09-21T05:59:58;18.60;;;5.00;;
9729;SDS011;4904;49.152;11.004;2022-09-21T06:02:45;73.80;;;6.47;;
9729;SDS011;4904;49.152;11.004;2022-09-21T06:05:45;15.53;;;4.57;;
9729;SDS011;4904;49.152;11.004;2022-09-21T06:08:12;40.07;;;5.00;;
9729;SDS011;4904;49.152;11.004;2022-09-21T06:10:38;37.77;;;6.30;;
9729;SDS011;4904;49.152;11.004;2022-09-21T06:13:05;52.23;;;6.23;;
9729;SDS011;4904;49.152;11.004;2022-09-21T06:15:32;76.60;;;7.70;;
9729;SDS011;4904;49.152;11.004;2022-09-21T06:18:02;64.03;;;7.13;;
9729;SDS011;4904;49.152;11.004;2022-09-21T06:20:29;16.80;;;3.97;;
9729;SDS011;4904;49.152;11.004;2022-09-21T06:23:00;72.00;;;7.03;;
9729;SDS011;4904;49.152;11.004;2022-09-21T06:25:27;62.93;;;8.93;;
9729;SDS011;4904;49.152;11.004;2022-09-21T06:27:54;67.40;;;7.17;;
9729;SDS011;4904;49.152;11.004;2022-09-21T06:30:21;26.40;;;5.47;;
9729;SDS011;4904;49.152;11.004;2022-09-21T06:32:48;20.90;;;4.53;;
9729;SDS011;4904;49.152;11.004;2022-09-21T06:35:15;64.73;;;6.27;;
9729;SDS011;4904;49.152;11.004;2022-09-21T06:37:41;14.03;;;5.80;;
9729;SDS011;4904;49.152;11.004;2022-09-21T06:40:10;34.83;;;4.97;;
9729;SDS011;4904;49.152;11.004;2022-09-21T06:42:37;141.03;;;9.13;;
9729;SDS011;4904;49.152;11.004;2022-09-21T06:45:04;119.30;;;9.90;;
9729;SDS011;4904;49.152;11.004;2022-09-21T06:47:31;21.23;;;6.47;;
9729;SDS011;4904;49.152;11.004;2022-09-21T06:49:58;15.90;;;7.43;;
9729;SDS011;4904;49.152;11.004;2022-09-21T06:52:25;103.90;;;9.73;;
9729;SDS011;4904;49.152;11.004;2022-09-21T06:54:52;22.63;;;7.80;;
9729;SDS011;4904;49.152;11.004;2022-09-21T06:57:20;32.67;;;12.43;;
9729;SDS011;4904;49.152;11.004;2022-09-21T06:59:48;18.63;;;9.93;;
9729;SDS011;4904;49.152;11.004;2022-09-21T07:02:14;11.40;;;7.50;;
9729;SDS011;4904;49.152;11.004;2022-09-21T07:04:41;27.87;;;11.43;;
9729;SDS011;4904;49.152;11.004;2022-09-21T07:07:08;118.90;;;11.13;;
9729;SDS011;4904;49.152;11.004;2022-09-21T07:09:35;13.80;;;5.67;;
9729;SDS011;4904;49.152;11.004;2022-09-21T07:12:02;6.17;;;4.80;;
9729;SDS011;4904;49.152;11.004;2022-09-21T07:14:33;126.10;;;8.20;;
9729;SDS011;4904;49.152;11.004;2022-09-21T07:17:00;12.73;;;5.20;;
9729;SDS011;4904;49.152;11.004;2022-09-21T07:19:27;18.97;;;6.47;;
9729;SDS011;4904;49.152;11.004;2022-09-21T07:21:54;9.73;;;4.67;;
9729;SDS011;4904;49.152;11.004;2022-09-21T07:24:21;4.87;;;4.10;;
9729;SDS011;4904;49.152;11.004;2022-09-21T07:26:48;6.37;;;4.90;;
9729;SDS011;4904;49.152;11.004;2022-09-21T07:29:14;21.47;;;6.03;;
9729;SDS011;4904;49.152;11.004;2022-09-21T07:31:43;5.53;;;5.03;;
9729;SDS011;4904;49.152;11.004;2022-09-21T07:34:10;15.87;;;5.23;;
9729;SDS011;4904;49.152;11.004;2022-09-21T07:36:37;8.30;;;5.33;;
9729;SDS011;4904;49.152;11.004;2022-09-21T07:39:04;9.47;;;6.03;;
9729;SDS011;4904;49.152;11.004;2022-09-21T07:41:31;56.63;;;6.73;;
9729;SDS011;4904;49.152;11.004;2022-09-21T07:43:58;21.27;;;5.37;;
9729;SDS011;4904;49.152;11.004;2022-09-21T07:46:24;11.80;;;5.27;;
9729;SDS011;4904;49.152;11.004;2022-09-21T07:48:53;6.67;;;5.93;;
9729;SDS011;4904;49.152;11.004;2022-09-21T07:51:21;11.53;;;6.80;;
9729;SDS011;4904;49.152;11.004;2022-09-21T07:53:52;7.70;;;7.00;;
9729;SDS011;4904;49.152;11.004;2022-09-21T07:56:20;10.37;;;6.70;;
9729;SDS011;4904;49.152;11.004;2022-09-21T07:58:47;34.03;;;7.00;;
9729;SDS011;4904;49.152;11.004;2022-09-21T08:01:32;65.27;;;8.07;;
9729;SDS011;4904;49.152;11.004;2022-09-21T08:04:02;50.37;;;7.63;;
9729;SDS011;4904;49.152;11.004;2022-09-21T08:06:31;25.07;;;6.87;;
9729;SDS011;4904;49.152;11.004;2022-09-21T08:08:59;8.23;;;6.63;;
9729;SDS011;4904;49.152;11.004;2022-09-21T08:11:28;7.65;;;6.85;;
9729;SDS011;4904;49.152;11.004;2022-09-21T08:13:57;8.73;;;7.87;;
9729;SDS011;4904;49.152;11.004;2022-09-21T08:16:25;9.93;;;8.83;;
9729;SDS011;4904;49.152;11.004;2022-09-21T08:18:53;68.73;;;12.47;;
9729;SDS011;4904;49.152;11.004;2022-09-21T08:21:21;21.57;;;10.30;;
9729;SDS011;4904;49.152;11.004;2022-09-21T08:23:48;25.97;;;9.17;;
9729;SDS011;4904;49.152;11.004;2022-09-21T08:26:17;9.53;;;8.57;;
9729;SDS011;4904;49.152;11.004;2022-09-21T08:28:45;10.30;;;9.30;;
9729;SDS011;4904;49.152;11.004;2022-09-21T08:31:14;9.90;;;8.90;;
9729;SDS011;4904;49.152;11.004;2022-09-21T08:33:43;8.32;;;7.53;;
9729;SDS011;4904;49.152;11.004;2022-09-21T08:36:11;9.70;;;8.30;;
9729;SDS011;4904;49.152;11.004;2022-09-21T08:38:39;9.50;;;8.03;;
9729;SDS011;4904;49.152;11.004;2022-09-21T08:41:13;8.40;;;7.60;;
9729;SDS011;4904;49.152;11.004;2022-09-21T08:43:44;8.60;;;7.70;;
9729;SDS011;4904;49.152;11.004;2022-09-21T08:46:16;8.30;;;6.85;;
9729;SDS011;4904;49.152;11.004;2022-09-21T08:48:47;6.75;;;6.15;;
9729;SDS011;4904;49.152;11.004;2022-09-21T08:51:16;7.10;;;6.50;;
9729;SDS011;4904;49.152;11.004;2022-09-21T08:53:48;6.93;;;6.32;;
9729;SDS011;4904;49.152;11.004;2022-09-21T08:56:18;7.35;;;6.70;;
9729;SDS011;4904;49.152;11.004;2022-09-21T08:58:47;6.40;;;5.85;;
9729;SDS011;4904;49.152;11.004;2022-09-21T09:01:18;7.82;;;7.07;;
9729;SDS011;4904;49.152;11.004;2022-09-21T09:04:16;6.70;;;6.10;;
9729;SDS011;4904;49.152;11.004;2022-09-21T09:06:56;6.53;;;6.00;;
9729;SDS011;4904;49.152;11.004;2022-09-21T09:09:39;7.40;;;6.70;;
9729;SDS011;4904;49.152;11.004;2022-09-21T09:12:19;7.43;;;6.72;;
9729;SDS011;4904;49.152;11.004;2022-09-21T09:15:02;8.52;;;6.43;;
9729;SDS011;4904;49.152;11.004;2022-09-21T09:17:43;6.35;;;5.75;;
9729;SDS011;4904;49.152;11.004;2022-09-21T09:20:17;6.22;;;5.65;;
9729;SDS011;4904;49.152;11.004;2022-09-21T09:22:47;5.38;;;4.90;;
9729;SDS011;4904;49.152;11.004;2022-09-21T09:25:22;6.00;;;5.40;;
9729;SDS011;4904;49.152;11.004;2022-09-21T09:27:50;4.57;;;4.18;;
9729;SDS011;4904;49.152;11.004;2022-09-21T09:30:21;4.50;;;4.10;;
9729;SDS011;4904;49.152;11.004;2022-09-21T09:32:52;4.38;;;3.80;;
9729;SDS011;4904;49.152;11.004;2022-09-21T09:35:23;5.32;;;4.07;;
9729;SDS011;4904;49.152;11.004;2022-09-21T09:37:54;4.75;;;3.50;;
9729;SDS011;4904;49.152;11.004;2022-09-21T09:40:33;3.83;;;3.30;;
9729;SDS011;4904;49.152;11.004;2022-09-21T09:43:32;3.47;;;3.17;;
9729;SDS011;4904;49.152;11.004;2022-09-21T09:46:11;3.22;;;3.00;;
9729;SDS011;4904;49.152;11.004;2022-09-21T09:48:52;3.13;;;2.40;;
9729;SDS011;4904;49.152;11.004;2022-09-21T09:51:38;3.15;;;2.95;;
9729;SDS011;4904;49.152;11.004;2022-09-21T09:54:07;3.08;;;2.78;;
9729;SDS011;4904;49.152;11.004;2022-09-21T09:56:40;3.03;;;2.83;;
9729;SDS011;4904;49.152;11.004;2022-09-21T09:59:09;3.72;;;3.05;;
9729;SDS011;4904;49.152;11.004;2022-09-21T10:01:43;3.80;;;2.67;;
9729;SDS011;4904;49.152;11.004;2022-09-21T10:04:11;3.65;;;2.92;;
9729;SDS011;4904;49.152;11.004;2022-09-21T10:06:40;2.90;;;2.60;;
9729;SDS011;4904;49.152;11.004;2022-09-21T10:09:17;3.10;;;2.20;;
9729;SDS011;4904;49.152;11.004;2022-09-21T10:11:49;2.00;;;1.90;;
9729;SDS011;4904;49.152;11.004;2022-09-21T10:14:18;2.53;;;2.33;;
9729;SDS011;4904;49.152;11.004;2022-09-21T10:16:47;2.90;;;2.05;;
9729;SDS011;4904;49.152;11.004;2022-09-21T10:19:18;2.00;;;1.90;;
9729;SDS011;4904;49.152;11.004;2022-09-21T10:21:54;2.92;;;1.85;;
9729;SDS011;4904;49.152;11.004;2022-09-21T10:24:23;2.10;;;1.83;;
9729;SDS011;4904;49.152;11.004;2022-09-21T10:26:53;2.42;;;1.70;;
9729;SDS011;4904;49.152;11.004;2022-09-21T10:29:31;2.00;;;1.80;;
9729;SDS011;4904;49.152;11.004;2022-09-21T10:32:07;3.47;;;1.90;;
9729;SDS011;4904;49.152;11.004;2022-09-21T10:35:01;2.50;;;1.70;;
9729;SDS011;4904;49.152;11.004;2022-09-21T10:37:43;2.28;;;1.70;;
9729;SDS011;4904;49.152;11.004;2022-09-21T10:40:23;3.03;;;1.75;;
9729;SDS011;4904;49.152;11.004;2022-09-21T10:42:54;1.95;;;1.73;;
9729;SDS011;4904;49.152;11.004;2022-09-21T10:45:23;4.22;;;1.80;;
9729;SDS011;4904;49.152;11.004;2022-09-21T10:47:52;2.92;;;1.85;;
9729;SDS011;4904;49.152;11.004;2022-09-21T10:50:23;2.40;;;2.20;;
9729;SDS011;4904;49.152;11.004;2022-09-21T10:52:54;2.47;;;1.92;;
9729;SDS011;4904;49.152;11.004;2022-09-21T10:55:24;3.70;;;1.70;;
9729;SDS011;4904;49.152;11.004;2022-09-21T10:57:54;2.20;;;2.00;;
9729;SDS011;4904;49.152;11.004;2022-09-21T11:00:27;1.92;;;1.70;;
9729;SDS011;4904;49.152;11.004;2022-09-21T11:03:23;2.17;;;1.52;;
9729;SDS011;4904;49.152;11.004;2022-09-21T11:05:56;2.80;;;1.70;;
9729;SDS011;4904;49.152;11.004;2022-09-21T11:08:29;1.95;;;1.60;;
9729;SDS011;4904;49.152;11.004;2022-09-21T11:11:03;1.60;;;1.50;;
9729;SDS011;4904;49.152;11.004;2022-09-21T11:13:43;1.95;;;1.80;;
9729;SDS011;4904;49.152;11.004;2022-09-21T11:16:15;4.00;;;2.00;;
9729;SDS011;4904;49.152;11.004;2022-09-21T11:18:48;1.52;;;1.40;;
9729;SDS011;4904;49.152;11.004;2022-09-21T11:21:25;1.52;;;1.42;;
9729;SDS011;4904;49.152;11.004;2022-09-21T11:24:08;1.80;;;1.45;;
9729;SDS011;4904;49.152;11.004;2022-09-21T11:26:47;3.58;;;1.58;;
9729;SDS011;4904;49.152;11.004;2022-09-21T11:29:23;1.58;;;1.48;;
9729;SDS011;4904;49.152;11.004;2022-09-21T11:31:59;2.13;;;1.48;;
9729;SDS011;4904;49.152;11.004;2022-09-21T11:34:42;1.55;;;1.45;;
9729;SDS011;4904;49.152;11.004;2022-09-21T11:37:49;1.98;;;1.42;;
9729;SDS011;4904;49.152;11.004;2022-09-21T11:40:29;2.92;;;1.20;;
9729;SDS011;4904;49.152;11.004;2022-09-21T11:43:06;1.65;;;1.55;;
9729;SDS011;4904;49.152;11.004;2022-09-21T11:45:48;1.52;;;1.42;;
9729;SDS011;4904;49.152;11.004;2022-09-21T11:48:41;1.30;;;1.20;;
9729;SDS011;4904;49.152;11.004;2022-09-21T11:51:26;1.55;;;1.33;;
9729;SDS011;4904;49.152;11.004;2022-09-21T11:57:12;1.48;;;1.30;;
9729;SDS011;4904;49.152;11.004;2022-09-21T12:00:01;1.33;;;1.23;;
9729;SDS011;4904;49.152;11.004;2022-09-21T12:05:36;1.58;;;1.45;;
9729;SDS011;4904;49.152;11.004;2022-09-21T12:11:01;2.72;;;1.50;;
9729;SDS011;4904;49.152;11.004;2022-09-21T12:13:37;4.03;;;1.20;;
9729;SDS011;4904;49.152;11.004;2022-09-21T12:16:17;1.63;;;1.52;;
9729;SDS011;4904;49.152;11.004;2022-09-21T12:18:49;1.52;;;1.42;;
9729;SDS011;4904;49.152;11.004;2022-09-21T12:21:23;1.58;;;1.40;;
9729;SDS011;4904;49.152;11.004;2022-09-21T12:23:53;1.38;;;1.27;;
9729;SDS011;4904;49.152;11.004;2022-09-21T12:26:22;1.85;;;1.73;;
9729;SDS011;4904;49.152;11.004;2022-09-21T12:28:52;2.10;;;2.00;;
9729;SDS011;4904;49.152;11.004;2022-09-21T12:31:25;1.88;;;1.60;;
9729;SDS011;4904;49.152;11.004;2022-09-21T12:33:58;1.90;;;1.77;;
9729;SDS011;4904;49.152;11.004;2022-09-21T12:36:32;1.80;;;1.70;;
9729;SDS011;4904;49.152;11.004;2022-09-21T12:39:04;1.67;;;1.58;;
9729;SDS011;4904;49.152;11.004;2022-09-21T12:41:46;2.20;;;1.90;;
9729;SDS011;4904;49.152;11.004;2022-09-21T12:44:21;1.80;;;1.50;;
9729;SDS011;4904;49.152;11.004;2022-09-21T12:46:53;1.70;;;1.60;;
9729;SDS011;4904;49.152;11.004;2022-09-21T12:49:33;6.35;;;5.75;;
9729;SDS011;4904;49.152;11.004;2022-09-21T12:52:06;2.17;;;1.70;;
9729;SDS011;4904;49.152;11.004;2022-09-21T12:54:34;1.75;;;1.60;;
9729;SDS011;4904;49.152;11.004;2022-09-21T12:57:08;1.77;;;1.50;;
9729;SDS011;4904;49.152;11.004;2022-09-21T12:59:45;1.63;;;1.50;;
9729;SDS011;4904;49.152;11.004;2022-09-21T13:02:16;1.88;;;1.17;;
9729;SDS011;4904;49.152;11.004;2022-09-21T13:04:52;1.23;;;1.10;;
9729;SDS011;4904;49.152;11.004;2022-09-21T13:10:23;1.40;;;1.30;;
9729;SDS011;4904;49.152;11.004;2022-09-21T13:13:03;1.88;;;1.50;;
9729;SDS011;4904;49.152;11.004;2022-09-21T13:15:40;1.50;;;1.40;;
9729;SDS011;4904;49.152;11.004;2022-09-21T13:18:15;2.65;;;1.50;;
9729;SDS011;4904;49.152;11.004;2022-09-21T13:20:46;2.03;;;1.45;;
9729;SDS011;4904;49.152;11.004;2022-09-21T13:23:19;1.83;;;1.50;;
9729;SDS011;4904;49.152;11.004;2022-09-21T13:25:57;2.95;;;1.70;;
9729;SDS011;4904;49.152;11.004;2022-09-21T13:28:38;1.58;;;1.48;;
9729;SDS011;4904;49.152;11.004;2022-09-21T13:31:38;1.50;;;1.38;;
9729;SDS011;4904;49.152;11.004;2022-09-21T13:34:22;1.23;;;1.13;;
9729;SDS011;4904;49.152;11.004;2022-09-21T13:43:20;1.40;;;1.30;;
9729;SDS011;4904;49.152;11.004;2022-09-21T13:46:02;2.63;;;1.40;;
9729;SDS011;4904;49.152;11.004;2022-09-21T13:48:30;1.40;;;1.30;;
9729;SDS011;4904;49.152;11.004;2022-09-21T13:50:58;1.45;;;1.35;;
9729;SDS011;4904;49.152;11.004;2022-09-21T13:53:32;2.20;;;1.60;;
9729;SDS011;4904;49.152;11.004;2022-09-21T13:56:06;3.22;;;1.50;;
9729;SDS011;4904;49.152;11.004;2022-09-21T13:58:39;2.13;;;1.80;;
9729;SDS011;4904;49.152;11.004;2022-09-21T14:01:11;1.65;;;1.55;;
9729;SDS011;4904;49.152;11.004;2022-09-21T14:03:44;2.75;;;1.25;;
9729;SDS011;4904;49.152;11.004;2022-09-21T14:06:15;1.63;;;1.30;;
9729;SDS011;4904;49.152;11.004;2022-09-21T14:08:46;1.60;;;1.50;;
9729;SDS011;4904;49.152;11.004;2022-09-21T14:11:19;1.75;;;1.40;;
9729;SDS011;4904;49.152;11.004;2022-09-21T14:14:00;1.40;;;1.30;;
9729;SDS011;4904;49.152;11.004;2022-09-21T14:16:51;1.92;;;1.70;;
9729;SDS011;4904;49.152;11.004;2022-09-21T14:22:41;6.43;;;5.40;;
9729;SDS011;4904;49.152;11.004;2022-09-21T14:25:28;1.67;;;1.58;;
9729;SDS011;4904;49.152;11.004;2022-09-21T14:28:13;1.95;;;1.73;;
9729;SDS011;4904;49.152;11.004;2022-09-21T14:30:55;1.73;;;1.50;;
9729;SDS011;4904;49.152;11.004;2022-09-21T14:33:44;1.73;;;1.50;;
9729;SDS011;4904;49.152;11.004;2022-09-21T14:36:16;2.58;;;1.23;;
9729;SDS011;4904;49.152;11.004;2022-09-21T14:38:52;2.00;;;1.30;;
9729;SDS011;4904;49.152;11.004;2022-09-21T14:41:26;1.40;;;1.30;;
9729;SDS011;4904;49.152;11.004;2022-09-21T14:43:58;1.23;;;1.20;;
9729;SDS011;4904;49.152;11.004;2022-09-21T14:49:31;2.28;;;1.20;;
9729;SDS011;4904;49.152;11.004;2022-09-21T14:52:09;1.60;;;1.50;;
9729;SDS011;4904;49.152;11.004;2022-09-21T14:54:44;1.50;;;1.40;;
9729;SDS011;4904;49.152;11.004;2022-09-21T14:57:21;1.38;;;1.27;;
9729;SDS011;4904;49.152;11.004;2022-09-21T15:00:09;1.27;;;1.17;;
9729;SDS011;4904;49.152;11.004;2022-09-21T15:02:46;1.67;;;1.27;;
9729;SDS011;4904;49.152;11.004;2022-09-21T15:05:21;1.35;;;1.25;;
9729;SDS011;4904;49.152;11.004;2022-09-21T15:08:01;1.75;;;1.35;;
9729;SDS011;4904;49.152;11.004;2022-09-21T15:11:05;4.03;;;2.10;;
9729;SDS011;4904;49.152;11.004;2022-09-21T15:14:01;5.53;;;4.75;;
9729;SDS011;4904;49.152;11.004;2022-09-21T15:16:41;3.63;;;3.15;;
9729;SDS011;4904;49.152;11.004;2022-09-21T15:19:19;1.98;;;1.83;;
9729;SDS011;4904;49.152;11.004;2022-09-21T15:21:49;1.83;;;1.38;;
9729;SDS011;4904;49.152;11.004;2022-09-21T15:24:26;4.10;;;1.80;;
9729;SDS011;4904;49.152;11.004;2022-09-21T15:27:00;2.78;;;1.77;;
9729;SDS011;4904;49.152;11.004;2022-09-21T15:29:31;6.05;;;4.78;;
9729;SDS011;4904;49.152;11.004;2022-09-21T15:31:59;16.33;;;11.25;;
9729;SDS011;4904;49.152;11.004;2022-09-21T15:34:27;12.82;;;9.27;;
9729;SDS011;4904;49.152;11.004;2022-09-21T15:37:04;7.57;;;4.85;;
9729;SDS011;4904;49.152;11.004;2022-09-21T15:39:32;3.08;;;2.20;;
9729;SDS011;4904;49.152;11.004;2022-09-21T15:42:16;2.83;;;1.92;;
9729;SDS011;4904;49.152;11.004;2022-09-21T15:44:47;2.22;;;2.03;;
9729;SDS011;4904;49.152;11.004;2022-09-21T15:47:15;3.08;;;2.60;;
9729;SDS011;4904;49.152;11.004;2022-09-21T15:49:46;2.72;;;2.30;;
9729;SDS011;4904;49.152;11.004;2022-09-21T15:52:17;13.05;;;4.93;;
9729;SDS011;4904;49.152;11.004;2022-09-21T15:54:51;5.03;;;2.50;;
9729;SDS011;4904;49.152;11.004;2022-09-21T15:57:23;2.95;;;1.83;;
9729;SDS011;4904;49.152;11.004;2022-09-21T16:00:03;3.17;;;1.80;;
9729;SDS011;4904;49.152;11.004;2022-09-21T16:02:50;5.22;;;2.83;;
9729;SDS011;4904;49.152;11.004;2022-09-21T16:05:30;2.58;;;2.15;;